createdAt,value
2022-11-20T00:01:16.081Z,7.70
2022-11-20T00:03:43.154Z,7.70
2022-11-20T00:06:13.079Z,7.70
2022-11-20T00:08:40.230Z,7.70
2022-11-20T00:11:14.251Z,7.70
2022-11-20T00:13:42.773Z,7.70
2022-11-20T00:16:11.834Z,7.70
2022-11-20T00:18:39.598Z,7.70
2022-11-20T00:21:08.805Z,7.70
2022-11-20T00:23:36.442Z,7.70
2022-11-20T00:26:04.574Z,7.60
2022-11-20T00:28:32.022Z,7.60
2022-11-20T00:31:09.521Z,7.60
2022-11-20T00:33:36.401Z,7.70
2022-11-20T00:36:07.478Z,7.60
2022-11-20T00:38:34.710Z,7.60
2022-11-20T00:41:03.902Z,7.70
2022-11-20T00:43:31.166Z,7.60
2022-11-20T00:45:59.841Z,7.70
2022-11-20T00:48:26.985Z,7.70
2022-11-20T00:50:54.339Z,7.70
2022-11-20T00:53:21.617Z,7.70
2022-11-20T00:56:10.448Z,7.70
2022-11-20T00:58:38.901Z,7.60
2022-11-20T01:01:07.673Z,7.60
2022-11-20T01:03:35.642Z,7.70
2022-11-20T01:06:21.911Z,7.70
2022-11-20T01:08:51.011Z,7.70
2022-11-20T01:11:20.791Z,7.70
2022-11-20T01:13:48.991Z,7.70
2022-11-20T01:16:16.598Z,7.70
2022-11-20T01:18:45.288Z,7.60
2022-11-20T01:21:15.053Z,7.60
2022-11-20T01:23:42.547Z,7.70
2022-11-20T01:26:11.318Z,7.70
2022-11-20T01:28:39.378Z,7.70
2022-11-20T01:31:16.043Z,7.70
2022-11-20T01:33:42.985Z,7.70
2022-11-20T01:36:09.945Z,7.70
2022-11-20T01:38:37.133Z,7.70
2022-11-20T01:41:04.113Z,7.70
2022-11-20T01:43:31.238Z,7.70
2022-11-20T01:46:17.778Z,7.70
2022-11-20T01:48:51.717Z,7.70
2022-11-20T01:51:43.525Z,7.70
2022-11-20T01:54:14.047Z,7.70
2022-11-20T01:56:42.474Z,7.70
2022-11-20T01:59:09.657Z,7.70
2022-11-20T02:01:38.516Z,7.70
2022-11-20T02:04:05.994Z,7.70
2022-11-20T02:06:49.785Z,7.70
2022-11-20T02:09:17.002Z,7.60
2022-11-20T02:11:44.927Z,7.70
2022-11-20T02:14:11.905Z,7.70
2022-11-20T02:16:40.669Z,7.60
2022-11-20T02:19:10.997Z,7.60
2022-11-20T02:21:38.577Z,7.60
2022-11-20T02:24:10.290Z,7.50
2022-11-20T02:27:03.032Z,7.50
2022-11-20T02:29:46.399Z,7.50
2022-11-20T02:32:46.597Z,7.50
2022-11-20T02:35:19.341Z,7.50
2022-11-20T02:37:46.739Z,7.40
2022-11-20T02:40:13.626Z,7.40
2022-11-20T02:42:40.986Z,7.50
2022-11-20T02:45:09.189Z,7.40
2022-11-20T02:47:36.522Z,7.40
2022-11-20T02:50:03.801Z,7.40
2022-11-20T02:52:31.090Z,7.50
2022-11-20T02:54:59.478Z,7.50
2022-11-20T02:57:26.543Z,7.50
2022-11-20T02:59:53.195Z,7.50
2022-11-20T03:02:20.284Z,7.50
2022-11-20T03:04:47.002Z,7.50
2022-11-20T03:07:14.553Z,7.50
2022-11-20T03:09:41.994Z,7.50
2022-11-20T03:12:09.658Z,7.50
2022-11-20T03:14:36.942Z,7.50
2022-11-20T03:17:04.569Z,7.50
2022-11-20T03:19:31.774Z,7.50
2022-11-20T03:21:58.873Z,7.50
2022-11-20T03:24:26.502Z,7.50
2022-11-20T03:26:53.533Z,7.50
2022-11-20T03:29:20.875Z,7.50
2022-11-20T03:31:48.440Z,7.50
2022-11-20T03:34:15.546Z,7.50
2022-11-20T03:36:44.130Z,7.50
2022-11-20T03:39:11.897Z,7.50
2022-11-20T03:41:40.970Z,7.50
2022-11-20T03:44:09.807Z,7.50
2022-11-20T03:46:36.841Z,7.50
2022-11-20T03:49:04.326Z,7.50
2022-11-20T03:51:32.462Z,7.50
2022-11-20T03:54:00.842Z,7.50
2022-11-20T03:56:30.059Z,7.50
2022-11-20T03:58:56.819Z,7.50
2022-11-20T04:01:31.689Z,7.50
2022-11-20T04:03:58.517Z,7.50
2022-11-20T04:06:27.004Z,7.50
2022-11-20T04:08:56.120Z,7.50
2022-11-20T04:11:27.845Z,7.50
2022-11-20T04:13:56.360Z,7.50
2022-11-20T04:16:23.875Z,7.50
2022-11-20T04:18:54.916Z,7.50
2022-11-20T04:21:22.365Z,7.50
2022-11-20T04:23:50.345Z,7.50
2022-11-20T04:26:17.504Z,7.50
2022-11-20T04:28:44.565Z,7.50
2022-11-20T04:31:13.526Z,7.50
2022-11-20T04:33:40.448Z,7.50
2022-11-20T04:36:09.245Z,7.50
2022-11-20T04:38:36.594Z,7.50
2022-11-20T04:41:05.109Z,7.50
2022-11-20T04:43:32.454Z,7.50
2022-11-20T04:45:59.891Z,7.50
2022-11-20T04:48:26.863Z,7.50
2022-11-20T04:50:53.936Z,7.50
2022-11-20T04:53:20.823Z,7.50
2022-11-20T04:55:47.598Z,7.50
2022-11-20T04:58:14.757Z,7.50
2022-11-20T05:00:42.002Z,7.50
2022-11-20T05:03:08.999Z,7.50
2022-11-20T05:05:36.379Z,7.50
2022-11-20T05:08:03.293Z,7.40
2022-11-20T05:10:30.457Z,7.50
2022-11-20T05:12:58.488Z,7.50
2022-11-20T05:15:25.697Z,7.50
2022-11-20T05:17:53.080Z,7.40
2022-11-20T05:20:20.457Z,7.50
2022-11-20T05:22:48.065Z,7.40
2022-11-20T05:25:14.767Z,7.40
2022-11-20T05:27:41.615Z,7.40
2022-11-20T05:30:10.636Z,7.50
2022-11-20T05:32:37.613Z,7.50
2022-11-20T05:35:05.671Z,7.50
2022-11-20T05:37:32.356Z,7.50
2022-11-20T05:40:00.595Z,7.40
2022-11-20T05:42:33.490Z,7.40
2022-11-20T05:45:01.148Z,7.50
2022-11-20T05:47:28.900Z,7.40
2022-11-20T05:49:56.669Z,7.50
2022-11-20T05:52:23.437Z,7.50
2022-11-20T05:54:50.529Z,7.40
2022-11-20T05:57:17.892Z,7.40
2022-11-20T05:59:44.547Z,7.40
2022-11-20T06:02:11.942Z,7.40
2022-11-20T06:04:39.525Z,7.40
2022-11-20T06:07:07.307Z,7.40
2022-11-20T06:09:34.097Z,7.40
2022-11-20T06:12:01.367Z,7.40
2022-11-20T06:14:28.432Z,7.40
2022-11-20T06:16:55.958Z,7.30
2022-11-20T06:19:23.285Z,7.30
2022-11-20T06:21:50.590Z,7.30
2022-11-20T06:24:17.671Z,7.30
2022-11-20T06:26:44.814Z,7.30
2022-11-20T06:29:11.931Z,7.30
2022-11-20T06:31:39.415Z,7.30
2022-11-20T06:34:07.224Z,7.30
2022-11-20T06:36:34.398Z,7.30
2022-11-20T06:39:01.465Z,7.30
2022-11-20T06:41:29.029Z,7.30
2022-11-20T06:43:56.480Z,7.30
2022-11-20T06:46:23.941Z,7.30
2022-11-20T06:48:50.794Z,7.30
2022-11-20T06:51:18.003Z,7.30
2022-11-20T06:53:44.759Z,7.30
2022-11-20T06:56:12.158Z,7.30
2022-11-20T06:58:39.599Z,7.30
2022-11-20T07:01:11.558Z,7.30
2022-11-20T07:03:38.718Z,7.30
2022-11-20T07:06:06.459Z,7.30
2022-11-20T07:08:33.393Z,7.30
2022-11-20T07:11:01.688Z,7.30
2022-11-20T07:13:29.053Z,7.40
2022-11-20T07:15:56.260Z,7.60
2022-11-20T07:18:23.277Z,7.60
2022-11-20T07:20:50.310Z,7.70
2022-11-20T07:23:17.417Z,7.90
2022-11-20T07:25:51.707Z,7.90
2022-11-20T07:28:18.534Z,7.90
2022-11-20T07:30:51.429Z,7.80
2022-11-20T07:33:19.122Z,7.80
2022-11-20T07:35:46.202Z,7.90
2022-11-20T07:38:14.402Z,7.90
2022-11-20T07:40:41.467Z,7.90
2022-11-20T07:43:08.536Z,7.80
2022-11-20T07:45:35.701Z,7.80
2022-11-20T07:48:02.741Z,7.90
2022-11-20T07:50:29.758Z,7.90
2022-11-20T07:53:07.092Z,7.80
2022-11-20T07:55:34.171Z,7.70
2022-11-20T07:58:00.922Z,7.80
2022-11-20T08:00:28.320Z,7.80
2022-11-20T08:02:55.603Z,7.70
2022-11-20T08:05:22.343Z,7.70
2022-11-20T08:07:49.243Z,7.80
2022-11-20T08:10:19.777Z,7.90
2022-11-20T08:13:09.179Z,7.90
2022-11-20T08:15:36.860Z,7.80
2022-11-20T08:20:52.714Z,7.80
2022-11-20T08:23:19.762Z,7.70
2022-11-20T08:25:50.406Z,7.70
2022-11-20T08:28:21.324Z,7.70
2022-11-20T08:30:49.275Z,7.80
2022-11-20T08:33:18.385Z,7.80
2022-11-20T08:35:45.807Z,7.80
2022-11-20T08:38:12.550Z,7.80
2022-11-20T08:40:39.565Z,7.70
2022-11-20T08:43:06.566Z,7.70
2022-11-20T08:45:34.878Z,7.70
2022-11-20T08:48:25.544Z,7.80
2022-11-20T08:50:52.238Z,7.70
2022-11-20T08:53:22.168Z,7.90
2022-11-20T08:55:48.930Z,7.90
2022-11-20T08:58:16.333Z,8.00
2022-11-20T09:00:43.389Z,8.00
2022-11-20T09:03:10.499Z,8.00
2022-11-20T09:05:37.493Z,8.00
2022-11-20T09:08:04.938Z,8.00
2022-11-20T09:10:31.950Z,8.00
2022-11-20T09:12:58.886Z,7.90
2022-11-20T09:15:26.066Z,7.90
2022-11-20T09:17:56.874Z,7.90
2022-11-20T09:20:23.983Z,8.00
2022-11-20T09:22:51.397Z,7.90
2022-11-20T09:25:18.936Z,7.90
2022-11-20T09:27:47.060Z,7.90
2022-11-20T09:30:17.579Z,7.80
2022-11-20T09:32:44.696Z,7.80
2022-11-20T09:35:12.729Z,7.80
2022-11-20T09:37:41.026Z,7.80
2022-11-20T09:40:18.309Z,7.80
2022-11-20T09:43:10.497Z,7.80
2022-11-20T09:45:43.254Z,7.70
2022-11-20T09:48:33.983Z,7.80
2022-11-20T09:51:27.186Z,7.70
2022-11-20T09:54:02.630Z,7.80
2022-11-20T09:56:30.001Z,7.90
2022-11-20T09:58:58.578Z,7.90
2022-11-20T10:01:28.465Z,7.90
2022-11-20T10:04:00.048Z,8.00
2022-11-20T10:07:30.681Z,8.00
2022-11-20T10:10:18.212Z,8.10
2022-11-20T10:13:02.191Z,8.00
2022-11-20T10:15:42.881Z,8.00
2022-11-20T10:18:16.535Z,8.10
2022-11-20T10:21:00.698Z,8.10
2022-11-20T10:23:52.380Z,8.00
2022-11-20T10:26:47.778Z,8.10
2022-11-20T10:29:16.435Z,8.10
2022-11-20T10:31:45.613Z,8.10
2022-11-20T10:34:28.553Z,8.10
2022-11-20T10:37:05.290Z,8.10
2022-11-20T10:40:08.944Z,8.00
2022-11-20T10:42:44.165Z,8.10
2022-11-20T10:45:32.350Z,8.20
2022-11-20T10:48:23.173Z,8.20
2022-11-20T10:51:12.185Z,8.20
2022-11-20T10:54:03.118Z,8.20
2022-11-20T10:56:37.413Z,8.20
2022-11-20T10:59:40.017Z,8.20
2022-11-20T11:02:23.843Z,8.20
2022-11-20T11:04:53.104Z,8.20
2022-11-20T11:07:37.202Z,8.30
2022-11-20T11:10:15.378Z,8.40
2022-11-20T11:12:47.672Z,8.40
2022-11-20T11:15:25.132Z,8.40
2022-11-20T11:17:53.897Z,8.50
2022-11-20T11:20:22.217Z,8.40
2022-11-20T11:23:12.199Z,8.40
2022-11-20T11:25:40.652Z,8.50
2022-11-20T11:28:19.459Z,8.50
2022-11-20T11:30:46.653Z,8.60
2022-11-20T11:33:20.884Z,8.60
2022-11-20T11:35:51.762Z,8.50
2022-11-20T11:38:23.347Z,8.30
2022-11-20T11:40:49.990Z,8.30
2022-11-20T11:43:41.110Z,8.30
2022-11-20T11:46:26.174Z,8.30
2022-11-20T11:49:17.693Z,8.40
2022-11-20T11:51:47.761Z,8.50
2022-11-20T11:54:25.658Z,8.50
2022-11-20T11:56:52.814Z,8.50
2022-11-20T11:59:29.848Z,8.50
2022-11-20T12:02:00.159Z,8.50
2022-11-20T12:04:43.902Z,8.40
2022-11-20T12:07:49.325Z,8.40
2022-11-20T12:10:31.302Z,8.30
2022-11-20T12:13:03.134Z,8.30
2022-11-20T12:15:32.035Z,8.30
2022-11-20T12:17:59.233Z,8.30
2022-11-20T12:20:30.130Z,8.30
2022-11-20T12:23:28.569Z,8.20
2022-11-20T12:25:57.021Z,8.20
2022-11-20T12:28:30.543Z,8.20
2022-11-20T12:31:12.105Z,8.10
2022-11-20T12:33:45.110Z,8.10
2022-11-20T12:36:28.755Z,8.10
2022-11-20T12:39:16.717Z,8.20
2022-11-20T12:42:27.807Z,8.20
2022-11-20T12:45:21.814Z,8.20
2022-11-20T12:48:07.387Z,8.10
2022-11-20T12:51:15.223Z,8.10
2022-11-20T12:54:05.865Z,8.10
2022-11-20T12:57:04.826Z,8.10
2022-11-20T12:59:37.502Z,8.10
2022-11-20T13:02:21.181Z,8.10
2022-11-20T13:04:59.731Z,8.10
2022-11-20T13:07:27.004Z,8.10
2022-11-20T13:09:54.671Z,8.10
2022-11-20T13:12:33.886Z,8.10
2022-11-20T13:15:19.066Z,8.10
2022-11-20T13:17:55.050Z,8.10
2022-11-20T13:20:22.580Z,8.10
2022-11-20T13:22:51.986Z,8.10
2022-11-20T13:25:29.829Z,8.00
2022-11-20T13:27:57.689Z,8.10
2022-11-20T13:30:29.132Z,8.00
2022-11-20T13:33:10.097Z,8.00
2022-11-20T13:35:43.580Z,8.10
2022-11-20T13:38:12.513Z,8.00
2022-11-20T13:41:00.424Z,8.00
2022-11-20T13:43:38.567Z,8.00
2022-11-20T13:46:09.815Z,8.00
2022-11-20T13:48:40.839Z,8.00
2022-11-20T13:51:12.529Z,8.00
2022-11-20T13:53:48.725Z,8.10
2022-11-20T13:56:48.357Z,8.10
2022-11-20T14:00:02.761Z,8.10
2022-11-20T14:04:05.009Z,8.20
2022-11-20T14:06:30.106Z,8.20
2022-11-20T14:08:57.161Z,8.20
2022-11-20T14:11:25.817Z,8.10
2022-11-20T14:14:20.367Z,8.10
2022-11-20T14:16:48.326Z,8.00
2022-11-20T14:19:21.030Z,8.00
2022-11-20T14:21:48.547Z,8.00
2022-11-20T14:24:15.387Z,8.00
2022-11-20T14:26:45.436Z,7.90
2022-11-20T14:29:17.517Z,8.00
2022-11-20T14:31:47.871Z,7.90
2022-11-20T14:34:25.814Z,7.90
2022-11-20T14:36:58.256Z,7.80
2022-11-20T14:39:37.531Z,7.80
2022-11-20T14:42:14.838Z,7.70
2022-11-20T14:44:41.900Z,7.50
2022-11-20T14:47:09.887Z,7.50
2022-11-20T14:49:37.257Z,7.40
2022-11-20T14:52:20.203Z,7.30
2022-11-20T14:55:16.841Z,7.30
2022-11-20T14:57:43.847Z,7.30
2022-11-20T15:00:13.559Z,7.20
2022-11-20T15:02:48.211Z,7.20
2022-11-20T15:05:15.599Z,7.20
2022-11-20T15:07:47.165Z,7.30
2022-11-20T15:10:22.214Z,7.20
2022-11-20T15:13:00.890Z,7.20
2022-11-20T15:15:41.891Z,7.20
2022-11-20T15:18:22.412Z,7.10
2022-11-20T15:20:49.165Z,7.10
2022-11-20T15:23:19.576Z,7.10
2022-11-20T15:25:46.372Z,7.00
2022-11-20T15:28:17.783Z,7.00
2022-11-20T15:30:46.191Z,7.00
2022-11-20T15:33:13.193Z,6.90
2022-11-20T15:35:40.193Z,6.90
2022-11-20T15:38:07.229Z,6.80
2022-11-20T15:40:34.628Z,6.80
2022-11-20T15:43:09.712Z,6.80
2022-11-20T15:45:47.086Z,6.80
2022-11-20T15:48:16.304Z,6.80
2022-11-20T15:50:57.006Z,6.70
2022-11-20T15:53:24.030Z,6.70
2022-11-20T15:55:51.490Z,6.70
2022-11-20T15:58:18.548Z,6.70
2022-11-20T16:00:45.686Z,6.70
2022-11-20T16:03:13.288Z,6.70
2022-11-20T16:05:40.024Z,6.70
2022-11-20T16:08:11.353Z,6.70
2022-11-20T16:10:39.362Z,6.70
2022-11-20T16:13:30.691Z,6.70
2022-11-20T16:15:58.467Z,6.70
2022-11-20T16:18:25.663Z,6.60
2022-11-20T16:20:54.473Z,6.70
2022-11-20T16:23:21.494Z,6.60
2022-11-20T16:25:48.517Z,6.60
2022-11-20T16:28:18.804Z,6.60
2022-11-20T16:30:46.770Z,6.60
2022-11-20T16:33:18.151Z,6.60
2022-11-20T16:35:45.598Z,6.60
2022-11-20T16:38:12.983Z,6.60
2022-11-20T16:40:40.382Z,6.70
2022-11-20T16:43:12.831Z,6.70
2022-11-20T16:45:44.210Z,6.70
2022-11-20T16:49:34.531Z,6.60
2022-11-20T16:52:17.250Z,6.60
2022-11-20T16:54:44.051Z,6.60
2022-11-20T16:57:11.072Z,6.70
2022-11-20T16:59:38.461Z,6.70
2022-11-20T17:02:05.566Z,6.60
2022-11-20T17:04:33.034Z,6.70
2022-11-20T17:07:03.719Z,6.60
2022-11-20T17:09:34.849Z,6.70
2022-11-20T17:12:02.469Z,6.60
2022-11-20T17:14:29.539Z,6.60
2022-11-20T17:16:56.595Z,6.70
2022-11-20T17:19:23.626Z,6.60
2022-11-20T17:21:50.752Z,6.60
2022-11-20T17:24:17.509Z,6.60
2022-11-20T17:26:44.836Z,6.70
2022-11-20T17:29:13.558Z,6.70
2022-11-20T17:31:40.235Z,6.70
2022-11-20T17:34:08.536Z,6.70
2022-11-20T17:36:38.542Z,6.70
2022-11-20T17:39:07.495Z,6.70
2022-11-20T17:41:34.327Z,6.70
2022-11-20T17:44:02.059Z,6.80
2022-11-20T17:46:33.378Z,6.70
2022-11-20T17:49:00.769Z,6.80
2022-11-20T17:51:29.426Z,6.80
2022-11-20T17:53:58.289Z,6.80
2022-11-20T17:56:44.640Z,6.80
2022-11-20T17:59:12.615Z,6.80
2022-11-20T18:01:42.781Z,6.80
2022-11-20T18:04:09.614Z,6.80
2022-11-20T18:06:36.309Z,6.80
2022-11-20T18:09:04.057Z,6.70
2022-11-20T18:11:36.284Z,6.70
2022-11-20T18:14:24.626Z,6.70
2022-11-20T18:16:53.465Z,6.70
2022-11-20T18:19:24.008Z,6.70
2022-11-20T18:21:51.114Z,6.70
2022-11-20T18:24:18.088Z,6.70
2022-11-20T18:26:46.592Z,6.80
2022-11-20T18:29:15.421Z,6.80
2022-11-20T18:31:43.440Z,6.70
2022-11-20T18:34:13.908Z,6.70
2022-11-20T18:36:41.758Z,6.70
2022-11-20T18:39:10.805Z,6.70
2022-11-20T18:41:57.006Z,6.70
2022-11-20T18:44:47.215Z,6.80
2022-11-20T18:47:15.955Z,6.80
2022-11-20T18:49:46.168Z,6.80
2022-11-20T18:52:13.639Z,6.80
2022-11-20T18:54:40.909Z,6.70
2022-11-20T18:57:10.390Z,6.70
2022-11-20T18:59:37.433Z,6.60
2022-11-20T19:02:05.213Z,6.60
2022-11-20T19:04:33.659Z,6.50
2022-11-20T19:07:01.121Z,6.40
2022-11-20T19:09:29.239Z,6.40
2022-11-20T19:11:56.531Z,6.40
2022-11-20T19:14:23.707Z,6.30
2022-11-20T19:16:51.703Z,6.30
2022-11-20T19:19:19.398Z,6.30
2022-11-20T19:21:46.585Z,6.30
2022-11-20T19:24:13.730Z,6.30
2022-11-20T19:26:40.812Z,6.30
2022-11-20T19:29:07.674Z,6.40
2022-11-20T19:31:34.533Z,6.50
2022-11-20T19:34:03.646Z,6.50
2022-11-20T19:36:31.210Z,6.50
2022-11-20T19:38:58.613Z,6.60
2022-11-20T19:41:30.345Z,6.60
2022-11-20T19:43:58.941Z,6.60
2022-11-20T19:46:26.654Z,6.60
2022-11-20T19:48:54.517Z,6.50
2022-11-20T19:51:23.442Z,6.60
2022-11-20T19:53:50.978Z,6.60
2022-11-20T19:56:18.266Z,6.60
2022-11-20T19:58:44.928Z,6.70
2022-11-20T20:01:20.430Z,6.60
2022-11-20T20:03:47.929Z,6.70
2022-11-20T20:06:22.407Z,6.70
2022-11-20T20:08:55.409Z,6.70
2022-11-20T20:11:23.298Z,6.70
2022-11-20T20:13:50.063Z,6.70
2022-11-20T20:16:18.766Z,6.80
2022-11-20T20:18:45.640Z,6.70
2022-11-20T20:21:15.308Z,6.70
2022-11-20T20:23:43.146Z,6.70
2022-11-20T20:26:10.474Z,6.70
2022-11-20T20:28:37.533Z,6.70
2022-11-20T20:31:24.571Z,6.70
2022-11-20T20:33:51.629Z,6.70
2022-11-20T20:36:19.861Z,6.70
2022-11-20T20:38:46.772Z,6.70
2022-11-20T20:41:14.663Z,6.70
2022-11-20T20:44:00.655Z,6.70
2022-11-20T20:46:27.678Z,6.80
2022-11-20T20:48:55.116Z,6.80
2022-11-20T20:51:22.709Z,6.80
2022-11-20T20:53:50.269Z,6.80
2022-11-20T20:56:17.468Z,6.80
2022-11-20T20:58:44.328Z,6.80
2022-11-20T21:01:13.000Z,6.90
2022-11-20T21:03:40.065Z,6.90
2022-11-20T21:06:07.092Z,6.90
2022-11-20T21:08:33.849Z,6.90
2022-11-20T21:11:08.801Z,6.90
2022-11-20T21:13:38.259Z,6.90
2022-11-20T21:16:05.889Z,6.90
2022-11-20T21:18:32.841Z,6.90
2022-11-20T21:21:18.841Z,6.90
2022-11-20T21:23:46.434Z,6.90
2022-11-20T21:26:13.602Z,6.90
2022-11-20T21:28:40.939Z,7.00
2022-11-20T21:31:09.561Z,6.90
2022-11-20T21:33:38.183Z,6.90
2022-11-20T21:36:06.060Z,6.90
2022-11-20T21:38:33.675Z,6.90
2022-11-20T21:41:00.581Z,6.90
2022-11-20T21:43:28.152Z,7.00
2022-11-20T21:45:59.827Z,7.00
2022-11-20T21:48:33.396Z,7.00
2022-11-20T21:51:06.957Z,7.00
2022-11-20T21:53:34.470Z,7.00
2022-11-20T21:56:01.968Z,7.00
2022-11-20T21:58:29.523Z,7.00
2022-11-20T22:00:56.834Z,7.10
2022-11-20T22:03:23.720Z,7.10
2022-11-20T22:05:57.467Z,7.10
2022-11-20T22:08:24.745Z,7.10
2022-11-20T22:11:02.702Z,7.10
2022-11-20T22:13:48.507Z,7.10
2022-11-20T22:16:15.652Z,7.10
2022-11-20T22:18:46.524Z,7.10
2022-11-20T22:21:14.033Z,7.20
2022-11-20T22:23:40.961Z,7.20
2022-11-20T22:26:09.593Z,7.20
2022-11-20T22:28:36.364Z,7.20
2022-11-20T22:31:04.314Z,7.20
2022-11-20T22:33:32.246Z,7.10
2022-11-20T22:36:06.267Z,7.20
2022-11-20T22:38:38.880Z,7.10
2022-11-20T22:41:17.468Z,7.10
2022-11-20T22:43:44.754Z,7.10
2022-11-20T22:46:14.217Z,7.10
2022-11-20T22:48:44.790Z,7.10
2022-11-20T22:51:13.453Z,7.00
2022-11-20T22:53:40.723Z,7.00
2022-11-20T22:56:08.339Z,7.00
2022-11-20T22:58:35.902Z,7.00
2022-11-20T23:01:16.506Z,7.00
2022-11-20T23:03:48.164Z,7.00
2022-11-20T23:06:15.564Z,7.00
2022-11-20T23:08:42.445Z,7.00
2022-11-20T23:11:13.943Z,7.00
2022-11-20T23:13:41.519Z,7.00
2022-11-20T23:16:13.506Z,7.00
2022-11-20T23:18:40.355Z,7.00
2022-11-20T23:21:11.675Z,7.00
2022-11-20T23:23:38.760Z,7.00
2022-11-20T23:26:07.579Z,7.00
2022-11-20T23:28:34.386Z,7.00
2022-11-20T23:31:01.282Z,7.00
2022-11-20T23:33:28.410Z,6.90
2022-11-20T23:35:56.508Z,6.90
2022-11-20T23:38:23.856Z,7.00
2022-11-20T23:40:51.766Z,6.90
2022-11-20T23:43:19.914Z,6.90
2022-11-20T23:45:53.115Z,6.90
2022-11-20T23:48:20.813Z,6.90
2022-11-20T23:50:47.902Z,6.90
2022-11-20T23:53:14.765Z,6.90
2022-11-20T23:55:46.193Z,6.90
2022-11-20T23:58:13.554Z,6.90
